sensor_id;sensor_type;location;lat;lon;timestamp;temperature;humidity
13707;DHT22;6925;47.816;13.072;2024-01-15T00:00:28;1.00;68.00
13707;DHT22;6925;47.816;13.072;2024-01-15T00:02:56;1.10;68.10
13707;DHT22;6925;47.816;13.072;2024-01-15T00:05:24;1.20;68.40
13707;DHT22;6925;47.816;13.072;2024-01-15T00:07:51;1.30;68.40
13707;DHT22;6925;47.816;13.072;2024-01-15T00:10:18;1.30;67.50
13707;DHT22;6925;47.816;13.072;2024-01-15T00:12:45;1.30;67.30
13707;DHT22;6925;47.816;13.072;2024-01-15T00:15:12;1.30;67.20
13707;DHT22;6925;47.816;13.072;2024-01-15T00:17:39;1.20;67.00
13707;DHT22;6925;47.816;13.072;2024-01-15T00:20:09;1.10;67.10
13707;DHT22;6925;47.816;13.072;2024-01-15T00:22:36;1.10;67.00
13707;DHT22;6925;47.816;13.072;2024-01-15T00:25:03;1.00;67.20
13707;DHT22;6925;47.816;13.072;2024-01-15T00:27:31;1.10;67.70
13707;DHT22;6925;47.816;13.072;2024-01-15T00:29:58;1.10;67.50
13707;DHT22;6925;47.816;13.072;2024-01-15T00:32:25;1.10;67.10
13707;DHT22;6925;47.816;13.072;2024-01-15T00:34:52;1.00;67.40
13707;DHT22;6925;47.816;13.072;2024-01-15T00:37:20;1.10;68.10
13707;DHT22;6925;47.816;13.072;2024-01-15T00:39:48;1.10;68.20
13707;DHT22;6925;47.816;13.072;2024-01-15T00:42:15;1.20;68.30
13707;DHT22;6925;47.816;13.072;2024-01-15T00:44:42;1.30;68.30
13707;DHT22;6925;47.816;13.072;2024-01-15T00:47:09;1.30;68.00
13707;DHT22;6925;47.816;13.072;2024-01-15T00:49:36;1.30;67.80
13707;DHT22;6925;47.816;13.072;2024-01-15T00:52:04;1.30;67.50
13707;DHT22;6925;47.816;13.072;2024-01-15T00:54:32;1.20;67.00
13707;DHT22;6925;47.816;13.072;2024-01-15T00:56:59;1.20;67.20
13707;DHT22;6925;47.816;13.072;2024-01-15T00:59:26;1.20;67.40
13707;DHT22;6925;47.816;13.072;2024-01-15T01:01:53;1.20;67.20
13707;DHT22;6925;47.816;13.072;2024-01-15T01:04:20;1.30;67.70
13707;DHT22;6925;47.816;13.072;2024-01-15T01:06:48;1.30;68.10
13707;DHT22;6925;47.816;13.072;2024-01-15T01:09:15;1.40;67.90
13707;DHT22;6925;47.816;13.072;2024-01-15T01:11:44;1.40;68.20
13707;DHT22;6925;47.816;13.072;2024-01-15T01:14:12;1.50;68.10
13707;DHT22;6925;47.816;13.072;2024-01-15T01:16:39;1.50;68.80
13707;DHT22;6925;47.816;13.072;2024-01-15T01:19:06;1.60;69.20
13707;DHT22;6925;47.816;13.072;2024-01-15T01:21:33;1.60;69.60
13707;DHT22;6925;47.816;13.072;2024-01-15T01:24:00;1.80;69.40
13707;DHT22;6925;47.816;13.072;2024-01-15T01:26:27;1.80;69.40
13707;DHT22;6925;47.816;13.072;2024-01-15T01:28:56;1.80;70.00
13707;DHT22;6925;47.816;13.072;2024-01-15T01:31:23;1.90;69.90
13707;DHT22;6925;47.816;13.072;2024-01-15T01:33:50;2.10;70.00
13707;DHT22;6925;47.816;13.072;2024-01-15T01:36:18;2.20;70.10
13707;DHT22;6925;47.816;13.072;2024-01-15T01:38:45;2.20;69.70
13707;DHT22;6925;47.816;13.072;2024-01-15T01:41:12;2.30;69.80
13707;DHT22;6925;47.816;13.072;2024-01-15T01:43:39;2.40;70.10
13707;DHT22;6925;47.816;13.072;2024-01-15T01:46:08;2.40;70.00
13707;DHT22;6925;47.816;13.072;2024-01-15T01:48:36;2.50;69.80
13707;DHT22;6925;47.816;13.072;2024-01-15T01:51:04;2.60;69.70
13707;DHT22;6925;47.816;13.072;2024-01-15T01:53:32;2.60;70.40
13707;DHT22;6925;47.816;13.072;2024-01-15T01:56:00;2.60;70.40
13707;DHT22;6925;47.816;13.072;2024-01-15T01:58:28;2.70;70.70
13707;DHT22;6925;47.816;13.072;2024-01-15T02:00:55;2.70;70.60
13707;DHT22;6925;47.816;13.072;2024-01-15T02:03:24;2.70;70.10
13707;DHT22;6925;47.816;13.072;2024-01-15T02:05:51;2.70;70.20
13707;DHT22;6925;47.816;13.072;2024-01-15T02:08:19;2.70;70.20
13707;DHT22;6925;47.816;13.072;2024-01-15T02:10:47;2.70;70.50
13707;DHT22;6925;47.816;13.072;2024-01-15T02:13:14;2.60;70.50
13707;DHT22;6925;47.816;13.072;2024-01-15T02:15:41;2.60;70.90
13707;DHT22;6925;47.816;13.072;2024-01-15T02:18:08;2.70;71.10
13707;DHT22;6925;47.816;13.072;2024-01-15T02:20:37;2.70;71.30
13707;DHT22;6925;47.816;13.072;2024-01-15T02:23:08;2.70;71.20
13707;DHT22;6925;47.816;13.072;2024-01-15T02:25:37;2.80;71.30
13707;DHT22;6925;47.816;13.072;2024-01-15T02:28:06;2.80;71.30
13707;DHT22;6925;47.816;13.072;2024-01-15T02:30:35;2.80;70.90
13707;DHT22;6925;47.816;13.072;2024-01-15T02:33:04;2.80;70.80
13707;DHT22;6925;47.816;13.072;2024-01-15T02:35:31;2.80;70.90
13707;DHT22;6925;47.816;13.072;2024-01-15T02:37:59;2.80;71.00
13707;DHT22;6925;47.816;13.072;2024-01-15T02:40:27;2.80;71.10
13707;DHT22;6925;47.816;13.072;2024-01-15T02:42:54;2.90;71.30
13707;DHT22;6925;47.816;13.072;2024-01-15T02:45:22;2.90;71.30
13707;DHT22;6925;47.816;13.072;2024-01-15T02:47:50;2.90;71.20
13707;DHT22;6925;47.816;13.072;2024-01-15T02:50:17;2.90;71.10
13707;DHT22;6925;47.816;13.072;2024-01-15T02:52:44;2.90;71.50
13707;DHT22;6925;47.816;13.072;2024-01-15T02:55:11;2.90;71.10
13707;DHT22;6925;47.816;13.072;2024-01-15T02:57:40;2.90;71.10
13707;DHT22;6925;47.816;13.072;2024-01-15T03:00:08;2.90;71.20
13707;DHT22;6925;47.816;13.072;2024-01-15T03:02:37;2.90;71.20
13707;DHT22;6925;47.816;13.072;2024-01-15T03:05:05;2.90;71.30
13707;DHT22;6925;47.816;13.072;2024-01-15T03:07:32;2.90;71.60
13707;DHT22;6925;47.816;13.072;2024-01-15T03:09:59;2.90;71.60
13707;DHT22;6925;47.816;13.072;2024-01-15T03:12:26;2.90;71.70
13707;DHT22;6925;47.816;13.072;2024-01-15T03:14:55;2.80;71.40
13707;DHT22;6925;47.816;13.072;2024-01-15T03:17:22;2.80;71.80
13707;DHT22;6925;47.816;13.072;2024-01-15T03:19:49;2.70;72.20
13707;DHT22;6925;47.816;13.072;2024-01-15T03:22:16;2.70;72.00
13707;DHT22;6925;47.816;13.072;2024-01-15T03:24:43;2.70;72.40
13707;DHT22;6925;47.816;13.072;2024-01-15T03:27:10;2.70;72.20
13707;DHT22;6925;47.816;13.072;2024-01-15T03:29:39;2.70;72.30
13707;DHT22;6925;47.816;13.072;2024-01-15T03:32:07;2.70;73.20
13707;DHT22;6925;47.816;13.072;2024-01-15T03:34:34;2.50;72.90
13707;DHT22;6925;47.816;13.072;2024-01-15T03:37:02;2.50;73.50
13707;DHT22;6925;47.816;13.072;2024-01-15T03:39:29;2.50;73.40
13707;DHT22;6925;47.816;13.072;2024-01-15T03:41:56;2.60;73.60
13707;DHT22;6925;47.816;13.072;2024-01-15T03:44:23;2.60;73.90
13707;DHT22;6925;47.816;13.072;2024-01-15T03:46:51;2.60;73.70
13707;DHT22;6925;47.816;13.072;2024-01-15T03:49:19;2.60;73.40
13707;DHT22;6925;47.816;13.072;2024-01-15T03:51:46;2.60;73.80
13707;DHT22;6925;47.816;13.072;2024-01-15T03:54:13;2.60;73.40
13707;DHT22;6925;47.816;13.072;2024-01-15T03:56:40;2.50;73.00
13707;DHT22;6925;47.816;13.072;2024-01-15T03:59:07;2.50;73.40
13707;DHT22;6925;47.816;13.072;2024-01-15T04:01:37;2.60;73.40
13707;DHT22;6925;47.816;13.072;2024-01-15T04:04:04;2.60;73.50
13707;DHT22;6925;47.816;13.072;2024-01-15T04:06:33;2.60;73.70
13707;DHT22;6925;47.816;13.072;2024-01-15T04:09:00;2.60;73.30
13707;DHT22;6925;47.816;13.072;2024-01-15T04:11:27;2.60;73.00
13707;DHT22;6925;47.816;13.072;2024-01-15T04:13:55;2.60;72.90
13707;DHT22;6925;47.816;13.072;2024-01-15T04:16:23;2.50;72.50
13707;DHT22;6925;47.816;13.072;2024-01-15T04:18:50;2.50;72.40
13707;DHT22;6925;47.816;13.072;2024-01-15T04:21:17;2.50;72.70
13707;DHT22;6925;47.816;13.072;2024-01-15T04:23:46;2.50;72.30
13707;DHT22;6925;47.816;13.072;2024-01-15T04:26:15;2.50;72.40
13707;DHT22;6925;47.816;13.072;2024-01-15T04:28:42;2.30;71.30
13707;DHT22;6925;47.816;13.072;2024-01-15T04:31:10;2.20;71.80
13707;DHT22;6925;47.816;13.072;2024-01-15T04:33:47;2.10;71.80
13707;DHT22;6925;47.816;13.072;2024-01-15T04:36:14;2.00;71.90
13707;DHT22;6925;47.816;13.072;2024-01-15T04:38:41;2.10;73.40
13707;DHT22;6925;47.816;13.072;2024-01-15T04:41:12;2.20;72.70
13707;DHT22;6925;47.816;13.072;2024-01-15T04:43:39;2.20;71.60
13707;DHT22;6925;47.816;13.072;2024-01-15T04:46:06;2.20;72.00
13707;DHT22;6925;47.816;13.072;2024-01-15T04:48:34;2.30;71.40
13707;DHT22;6925;47.816;13.072;2024-01-15T04:51:03;2.30;71.70
13707;DHT22;6925;47.816;13.072;2024-01-15T04:53:30;2.30;71.40
13707;DHT22;6925;47.816;13.072;2024-01-15T04:55:58;2.40;71.60
13707;DHT22;6925;47.816;13.072;2024-01-15T04:58:27;2.40;71.70
13707;DHT22;6925;47.816;13.072;2024-01-15T05:00:54;2.40;71.00
13707;DHT22;6925;47.816;13.072;2024-01-15T05:03:21;2.30;70.40
13707;DHT22;6925;47.816;13.072;2024-01-15T05:05:48;2.30;70.70
13707;DHT22;6925;47.816;13.072;2024-01-15T05:08:16;2.30;70.80
13707;DHT22;6925;47.816;13.072;2024-01-15T05:10:43;2.30;70.20
13707;DHT22;6925;47.816;13.072;2024-01-15T05:13:11;2.30;70.40
13707;DHT22;6925;47.816;13.072;2024-01-15T05:15:39;2.40;70.70
13707;DHT22;6925;47.816;13.072;2024-01-15T05:18:07;2.40;70.80
13707;DHT22;6925;47.816;13.072;2024-01-15T05:20:34;2.40;70.00
13707;DHT22;6925;47.816;13.072;2024-01-15T05:23:01;2.40;70.70
13707;DHT22;6925;47.816;13.072;2024-01-15T05:25:28;2.50;70.60
13707;DHT22;6925;47.816;13.072;2024-01-15T05:27:56;2.50;70.80
13707;DHT22;6925;47.816;13.072;2024-01-15T05:30:23;2.50;70.00
13707;DHT22;6925;47.816;13.072;2024-01-15T05:32:53;2.50;70.50
13707;DHT22;6925;47.816;13.072;2024-01-15T05:35:20;2.50;69.70
13707;DHT22;6925;47.816;13.072;2024-01-15T05:37:47;2.60;69.80
13707;DHT22;6925;47.816;13.072;2024-01-15T05:40:15;2.60;69.80
13707;DHT22;6925;47.816;13.072;2024-01-15T05:42:42;2.60;69.60
13707;DHT22;6925;47.816;13.072;2024-01-15T05:45:20;2.60;69.50
13707;DHT22;6925;47.816;13.072;2024-01-15T05:47:55;2.60;69.10
13707;DHT22;6925;47.816;13.072;2024-01-15T05:50:31;2.60;69.20
13707;DHT22;6925;47.816;13.072;2024-01-15T05:52:59;2.60;69.60
13707;DHT22;6925;47.816;13.072;2024-01-15T05:55:37;2.60;70.10
13707;DHT22;6925;47.816;13.072;2024-01-15T05:58:12;2.60;69.60
13707;DHT22;6925;47.816;13.072;2024-01-15T06:00:44;2.60;68.80
13707;DHT22;6925;47.816;13.072;2024-01-15T06:03:14;2.60;69.00
13707;DHT22;6925;47.816;13.072;2024-01-15T06:05:44;2.60;69.40
13707;DHT22;6925;47.816;13.072;2024-01-15T06:08:13;2.60;69.20
13707;DHT22;6925;47.816;13.072;2024-01-15T06:10:41;2.60;69.50
13707;DHT22;6925;47.816;13.072;2024-01-15T06:13:09;2.60;69.40
13707;DHT22;6925;47.816;13.072;2024-01-15T06:15:37;2.60;69.20
13707;DHT22;6925;47.816;13.072;2024-01-15T06:18:05;2.60;69.60
13707;DHT22;6925;47.816;13.072;2024-01-15T06:20:37;2.60;69.60
13707;DHT22;6925;47.816;13.072;2024-01-15T06:23:08;2.60;69.40
13707;DHT22;6925;47.816;13.072;2024-01-15T06:25:42;2.60;68.60
13707;DHT22;6925;47.816;13.072;2024-01-15T06:28:10;2.60;69.30
13707;DHT22;6925;47.816;13.072;2024-01-15T06:30:44;2.60;68.80
13707;DHT22;6925;47.816;13.072;2024-01-15T06:33:15;2.60;67.50
13707;DHT22;6925;47.816;13.072;2024-01-15T07:09:47;2.20;65.60
13707;DHT22;6925;47.816;13.072;2024-01-15T07:12:14;2.20;65.40
13707;DHT22;6925;47.816;13.072;2024-01-15T07:14:42;2.20;64.60
13707;DHT22;6925;47.816;13.072;2024-01-15T07:17:09;2.20;64.70
13707;DHT22;6925;47.816;13.072;2024-01-15T07:19:36;2.20;64.80
13707;DHT22;6925;47.816;13.072;2024-01-15T07:22:03;2.20;64.20
13707;DHT22;6925;47.816;13.072;2024-01-15T07:24:30;2.10;64.70
13707;DHT22;6925;47.816;13.072;2024-01-15T07:27:01;2.10;65.10
13707;DHT22;6925;47.816;13.072;2024-01-15T07:29:30;2.20;65.10
13707;DHT22;6925;47.816;13.072;2024-01-15T07:31:58;2.10;64.40
13707;DHT22;6925;47.816;13.072;2024-01-15T07:34:26;2.20;65.30
13707;DHT22;6925;47.816;13.072;2024-01-15T07:36:53;2.10;64.60
13707;DHT22;6925;47.816;13.072;2024-01-15T07:39:20;2.20;64.80
13707;DHT22;6925;47.816;13.072;2024-01-15T07:41:48;2.20;65.80
13707;DHT22;6925;47.816;13.072;2024-01-15T07:44:16;2.30;65.80
13707;DHT22;6925;47.816;13.072;2024-01-15T07:46:44;2.30;65.90
13707;DHT22;6925;47.816;13.072;2024-01-15T07:49:11;2.30;66.20
13707;DHT22;6925;47.816;13.072;2024-01-15T07:51:38;2.40;66.90
13707;DHT22;6925;47.816;13.072;2024-01-15T07:54:06;2.50;67.60
13707;DHT22;6925;47.816;13.072;2024-01-15T07:56:34;2.60;67.40
13707;DHT22;6925;47.816;13.072;2024-01-15T07:59:01;2.70;66.90
13707;DHT22;6925;47.816;13.072;2024-01-15T08:01:29;2.70;67.20
13707;DHT22;6925;47.816;13.072;2024-01-15T08:03:56;2.70;67.10
13707;DHT22;6925;47.816;13.072;2024-01-15T08:06:23;2.70;66.70
13707;DHT22;6925;47.816;13.072;2024-01-15T08:08:51;2.60;66.10
13707;DHT22;6925;47.816;13.072;2024-01-15T08:11:18;2.60;67.20
13707;DHT22;6925;47.816;13.072;2024-01-15T08:13:45;2.60;67.30
13707;DHT22;6925;47.816;13.072;2024-01-15T08:16:12;2.60;67.60
13707;DHT22;6925;47.816;13.072;2024-01-15T08:18:41;2.70;68.10
13707;DHT22;6925;47.816;13.072;2024-01-15T08:21:09;2.70;68.10
13707;DHT22;6925;47.816;13.072;2024-01-15T08:23:36;2.80;67.80
13707;DHT22;6925;47.816;13.072;2024-01-15T08:26:04;2.80;67.70
13707;DHT22;6925;47.816;13.072;2024-01-15T08:28:31;2.80;67.70
13707;DHT22;6925;47.816;13.072;2024-01-15T08:30:58;2.80;66.90
13707;DHT22;6925;47.816;13.072;2024-01-15T08:33:25;2.80;67.30
13707;DHT22;6925;47.816;13.072;2024-01-15T08:35:54;2.80;67.10
13707;DHT22;6925;47.816;13.072;2024-01-15T08:38:21;2.60;65.90
13707;DHT22;6925;47.816;13.072;2024-01-15T08:40:48;2.50;66.30
13707;DHT22;6925;47.816;13.072;2024-01-15T08:43:15;2.50;66.40
13707;DHT22;6925;47.816;13.072;2024-01-15T08:45:42;2.30;66.10
13707;DHT22;6925;47.816;13.072;2024-01-15T08:48:09;2.20;66.50
13707;DHT22;6925;47.816;13.072;2024-01-15T08:50:37;2.20;67.50
13707;DHT22;6925;47.816;13.072;2024-01-15T08:53:05;2.10;67.60
13707;DHT22;6925;47.816;13.072;2024-01-15T08:55:32;2.10;67.90
13707;DHT22;6925;47.816;13.072;2024-01-15T08:58:00;2.10;67.70
13707;DHT22;6925;47.816;13.072;2024-01-15T09:00:27;2.00;67.70
13707;DHT22;6925;47.816;13.072;2024-01-15T09:02:54;2.00;68.70
13707;DHT22;6925;47.816;13.072;2024-01-15T09:05:22;2.10;68.60
13707;DHT22;6925;47.816;13.072;2024-01-15T09:07:49;2.00;68.70
13707;DHT22;6925;47.816;13.072;2024-01-15T09:10:19;2.10;69.50
13707;DHT22;6925;47.816;13.072;2024-01-15T09:12:46;2.20;69.60
13707;DHT22;6925;47.816;13.072;2024-01-15T09:15:15;2.20;69.50
13707;DHT22;6925;47.816;13.072;2024-01-15T09:17:42;2.30;70.50
13707;DHT22;6925;47.816;13.072;2024-01-15T09:20:10;2.30;70.60
13707;DHT22;6925;47.816;13.072;2024-01-15T09:22:37;2.30;70.10
13707;DHT22;6925;47.816;13.072;2024-01-15T09:25:06;2.30;70.20
13707;DHT22;6925;47.816;13.072;2024-01-15T09:27:35;2.30;70.60
13707;DHT22;6925;47.816;13.072;2024-01-15T09:30:03;2.40;70.70
13707;DHT22;6925;47.816;13.072;2024-01-15T09:32:30;2.40;71.50
13707;DHT22;6925;47.816;13.072;2024-01-15T09:34:58;2.50;71.40
13707;DHT22;6925;47.816;13.072;2024-01-15T09:37:26;2.50;72.50
13707;DHT22;6925;47.816;13.072;2024-01-15T09:39:53;2.50;72.10
13707;DHT22;6925;47.816;13.072;2024-01-15T09:42:22;2.50;72.20
13707;DHT22;6925;47.816;13.072;2024-01-15T09:44:52;2.60;72.60
13707;DHT22;6925;47.816;13.072;2024-01-15T09:47:19;2.70;72.80
13707;DHT22;6925;47.816;13.072;2024-01-15T09:49:47;2.70;72.70
13707;DHT22;6925;47.816;13.072;2024-01-15T09:52:15;2.70;73.00
13707;DHT22;6925;47.816;13.072;2024-01-15T09:54:44;2.70;73.40
13707;DHT22;6925;47.816;13.072;2024-01-15T09:57:11;2.70;73.40
13707;DHT22;6925;47.816;13.072;2024-01-15T09:59:40;2.70;74.30
13707;DHT22;6925;47.816;13.072;2024-01-15T10:02:12;2.80;74.20
13707;DHT22;6925;47.816;13.072;2024-01-15T10:04:43;2.80;74.30
13707;DHT22;6925;47.816;13.072;2024-01-15T10:07:14;2.90;74.60
13707;DHT22;6925;47.816;13.072;2024-01-15T10:09:42;2.80;74.60
13707;DHT22;6925;47.816;13.072;2024-01-15T10:12:10;2.90;74.50
13707;DHT22;6925;47.816;13.072;2024-01-15T10:14:37;3.00;74.80
13707;DHT22;6925;47.816;13.072;2024-01-15T10:17:13;3.10;74.30
13707;DHT22;6925;47.816;13.072;2024-01-15T10:19:41;3.00;74.20
13707;DHT22;6925;47.816;13.072;2024-01-15T10:22:08;3.00;74.50
13707;DHT22;6925;47.816;13.072;2024-01-15T10:24:36;2.90;74.60
13707;DHT22;6925;47.816;13.072;2024-01-15T10:27:07;2.90;74.50
13707;DHT22;6925;47.816;13.072;2024-01-15T10:29:35;2.80;74.80
13707;DHT22;6925;47.816;13.072;2024-01-15T10:32:03;2.80;75.20
13707;DHT22;6925;47.816;13.072;2024-01-15T10:34:31;2.90;75.30
13707;DHT22;6925;47.816;13.072;2024-01-15T10:36:58;3.00;75.40
13707;DHT22;6925;47.816;13.072;2024-01-15T10:39:25;3.00;75.10
13707;DHT22;6925;47.816;13.072;2024-01-15T10:41:52;3.00;75.30
13707;DHT22;6925;47.816;13.072;2024-01-15T10:44:20;3.00;74.90
13707;DHT22;6925;47.816;13.072;2024-01-15T10:46:47;3.10;75.10
13707;DHT22;6925;47.816;13.072;2024-01-15T10:49:15;3.10;74.80
13707;DHT22;6925;47.816;13.072;2024-01-15T10:51:46;3.10;74.00
13707;DHT22;6925;47.816;13.072;2024-01-15T10:54:14;3.10;74.60
13707;DHT22;6925;47.816;13.072;2024-01-15T10:56:41;3.00;74.40
13707;DHT22;6925;47.816;13.072;2024-01-15T10:59:10;3.00;75.40
13707;DHT22;6925;47.816;13.072;2024-01-15T11:01:37;3.10;75.20
13707;DHT22;6925;47.816;13.072;2024-01-15T11:04:05;3.10;75.00
13707;DHT22;6925;47.816;13.072;2024-01-15T11:06:42;3.10;75.20
13707;DHT22;6925;47.816;13.072;2024-01-15T11:09:11;3.10;75.40
13707;DHT22;6925;47.816;13.072;2024-01-15T11:11:41;3.10;74.30
13707;DHT22;6925;47.816;13.072;2024-01-15T11:14:09;3.00;74.90
13707;DHT22;6925;47.816;13.072;2024-01-15T11:16:55;2.90;74.50
13707;DHT22;6925;47.816;13.072;2024-01-15T11:19:25;2.90;74.70
13707;DHT22;6925;47.816;13.072;2024-01-15T11:21:52;2.80;74.70
13707;DHT22;6925;47.816;13.072;2024-01-15T11:24:42;2.80;75.50
13707;DHT22;6925;47.816;13.072;2024-01-15T11:27:09;2.80;74.40
13707;DHT22;6925;47.816;13.072;2024-01-15T11:29:36;2.70;74.10
13707;DHT22;6925;47.816;13.072;2024-01-15T11:32:05;2.60;74.10
13707;DHT22;6925;47.816;13.072;2024-01-15T11:34:57;2.60;74.00
13707;DHT22;6925;47.816;13.072;2024-01-15T11:37:27;2.60;74.40
13707;DHT22;6925;47.816;13.072;2024-01-15T11:40:00;2.70;73.70
13707;DHT22;6925;47.816;13.072;2024-01-15T11:42:30;2.70;73.70
13707;DHT22;6925;47.816;13.072;2024-01-15T11:44:57;2.60;73.00
13707;DHT22;6925;47.816;13.072;2024-01-15T11:47:45;2.60;73.20
13707;DHT22;6925;47.816;13.072;2024-01-15T11:50:17;2.50;72.70
13707;DHT22;6925;47.816;13.072;2024-01-15T11:52:53;2.50;72.90
13707;DHT22;6925;47.816;13.072;2024-01-15T11:55:27;2.40;73.10
13707;DHT22;6925;47.816;13.072;2024-01-15T11:57:55;2.40;73.90
13707;DHT22;6925;47.816;13.072;2024-01-15T12:00:24;2.50;73.40
13707;DHT22;6925;47.816;13.072;2024-01-15T12:02:51;2.60;73.50
13707;DHT22;6925;47.816;13.072;2024-01-15T12:05:19;2.60;72.30
13707;DHT22;6925;47.816;13.072;2024-01-15T12:07:47;2.50;71.80
13707;DHT22;6925;47.816;13.072;2024-01-15T12:10:16;2.50;72.20
13707;DHT22;6925;47.816;13.072;2024-01-15T12:13:00;2.50;71.70
13707;DHT22;6925;47.816;13.072;2024-01-15T12:15:29;2.50;71.40
13707;DHT22;6925;47.816;13.072;2024-01-15T12:17:57;2.50;71.70
13707;DHT22;6925;47.816;13.072;2024-01-15T12:20:24;2.60;72.10
13707;DHT22;6925;47.816;13.072;2024-01-15T12:22:52;2.60;71.60
13707;DHT22;6925;47.816;13.072;2024-01-15T12:25:19;2.60;71.50
13707;DHT22;6925;47.816;13.072;2024-01-15T12:27:47;2.50;70.70
13707;DHT22;6925;47.816;13.072;2024-01-15T12:30:16;2.50;71.90
13707;DHT22;6925;47.816;13.072;2024-01-15T12:32:45;2.50;71.70
13707;DHT22;6925;47.816;13.072;2024-01-15T12:35:13;2.50;71.60
13707;DHT22;6925;47.816;13.072;2024-01-15T12:37:40;2.50;71.50
13707;DHT22;6925;47.816;13.072;2024-01-15T12:40:09;2.50;71.70
13707;DHT22;6925;47.816;13.072;2024-01-15T12:42:36;2.60;73.00
13707;DHT22;6925;47.816;13.072;2024-01-15T12:45:06;2.60;72.30
13707;DHT22;6925;47.816;13.072;2024-01-15T12:47:36;2.70;72.30
13707;DHT22;6925;47.816;13.072;2024-01-15T12:50:06;2.70;71.90
13707;DHT22;6925;47.816;13.072;2024-01-15T12:52:33;2.70;71.90
13707;DHT22;6925;47.816;13.072;2024-01-15T12:55:00;2.70;71.90
13707;DHT22;6925;47.816;13.072;2024-01-15T12:57:28;2.70;71.90
13707;DHT22;6925;47.816;13.072;2024-01-15T12:59:55;2.70;72.30
13707;DHT22;6925;47.816;13.072;2024-01-15T13:02:22;2.80;72.10
13707;DHT22;6925;47.816;13.072;2024-01-15T13:04:51;2.80;72.70
13707;DHT22;6925;47.816;13.072;2024-01-15T13:07:19;2.90;72.80
13707;DHT22;6925;47.816;13.072;2024-01-15T13:09:46;3.00;72.20
13707;DHT22;6925;47.816;13.072;2024-01-15T13:12:17;3.10;72.40
13707;DHT22;6925;47.816;13.072;2024-01-15T13:14:45;3.10;72.20
13707;DHT22;6925;47.816;13.072;2024-01-15T13:17:12;3.20;72.10
13707;DHT22;6925;47.816;13.072;2024-01-15T13:19:40;3.20;71.60
13707;DHT22;6925;47.816;13.072;2024-01-15T13:22:08;3.30;71.90
13707;DHT22;6925;47.816;13.072;2024-01-15T13:24:37;3.20;70.30
13707;DHT22;6925;47.816;13.072;2024-01-15T13:27:04;3.20;69.50
13707;DHT22;6925;47.816;13.072;2024-01-15T13:29:32;3.20;69.10
13707;DHT22;6925;47.816;13.072;2024-01-15T13:31:59;3.10;68.20
13707;DHT22;6925;47.816;13.072;2024-01-15T13:34:27;3.00;69.00
13707;DHT22;6925;47.816;13.072;2024-01-15T13:36:54;3.00;69.30
13707;DHT22;6925;47.816;13.072;2024-01-15T13:39:23;3.10;69.30
13707;DHT22;6925;47.816;13.072;2024-01-15T13:41:50;3.10;69.20
13707;DHT22;6925;47.816;13.072;2024-01-15T13:44:18;3.00;68.70
13707;DHT22;6925;47.816;13.072;2024-01-15T13:46:44;3.00;69.30
13707;DHT22;6925;47.816;13.072;2024-01-15T13:49:12;3.00;69.10
13707;DHT22;6925;47.816;13.072;2024-01-15T13:51:40;3.00;69.10
13707;DHT22;6925;47.816;13.072;2024-01-15T13:54:07;3.00;69.50
13707;DHT22;6925;47.816;13.072;2024-01-15T13:56:36;3.00;69.20
13707;DHT22;6925;47.816;13.072;2024-01-15T13:59:03;3.10;69.70
13707;DHT22;6925;47.816;13.072;2024-01-15T14:01:31;3.10;69.70
13707;DHT22;6925;47.816;13.072;2024-01-15T14:03:58;3.10;69.80
13707;DHT22;6925;47.816;13.072;2024-01-15T14:06:26;3.00;70.10
13707;DHT22;6925;47.816;13.072;2024-01-15T14:08:53;3.00;70.00
13707;DHT22;6925;47.816;13.072;2024-01-15T14:11:20;3.00;70.10
13707;DHT22;6925;47.816;13.072;2024-01-15T14:13:50;3.00;70.20
13707;DHT22;6925;47.816;13.072;2024-01-15T14:16:17;2.90;70.70
13707;DHT22;6925;47.816;13.072;2024-01-15T14:18:44;2.90;70.80
13707;DHT22;6925;47.816;13.072;2024-01-15T14:21:11;3.00;70.70
13707;DHT22;6925;47.816;13.072;2024-01-15T14:23:38;2.90;70.70
13707;DHT22;6925;47.816;13.072;2024-01-15T14:26:05;2.90;70.70
13707;DHT22;6925;47.816;13.072;2024-01-15T14:28:33;2.80;70.80
13707;DHT22;6925;47.816;13.072;2024-01-15T14:31:01;2.80;71.30
13707;DHT22;6925;47.816;13.072;2024-01-15T14:33:31;2.80;71.40
13707;DHT22;6925;47.816;13.072;2024-01-15T14:35:58;2.80;71.20
13707;DHT22;6925;47.816;13.072;2024-01-15T14:38:25;2.90;71.40
13707;DHT22;6925;47.816;13.072;2024-01-15T14:40:52;2.90;71.50
13707;DHT22;6925;47.816;13.072;2024-01-15T14:43:20;2.80;72.60
13707;DHT22;6925;47.816;13.072;2024-01-15T14:45:50;2.70;73.20
13707;DHT22;6925;47.816;13.072;2024-01-15T14:48:19;2.60;73.90
13707;DHT22;6925;47.816;13.072;2024-01-15T14:50:46;2.60;74.30
13707;DHT22;6925;47.816;13.072;2024-01-15T14:53:13;2.60;74.10
13707;DHT22;6925;47.816;13.072;2024-01-15T14:55:40;2.60;74.10
13707;DHT22;6925;47.816;13.072;2024-01-15T14:58:07;2.50;74.10
13707;DHT22;6925;47.816;13.072;2024-01-15T15:00:34;2.50;74.30
13707;DHT22;6925;47.816;13.072;2024-01-15T15:03:01;2.60;74.20
13707;DHT22;6925;47.816;13.072;2024-01-15T15:05:30;2.60;74.40
13707;DHT22;6925;47.816;13.072;2024-01-15T15:07:57;2.60;74.10
13707;DHT22;6925;47.816;13.072;2024-01-15T15:10:25;2.60;74.10
13707;DHT22;6925;47.816;13.072;2024-01-15T15:12:52;2.60;74.30
13707;DHT22;6925;47.816;13.072;2024-01-15T15:15:19;2.70;74.30
13707;DHT22;6925;47.816;13.072;2024-01-15T15:17:46;2.70;74.10
13707;DHT22;6925;47.816;13.072;2024-01-15T15:20:13;2.70;73.80
13707;DHT22;6925;47.816;13.072;2024-01-15T15:22:45;2.80;73.60
13707;DHT22;6925;47.816;13.072;2024-01-15T15:25:12;2.80;73.40
13707;DHT22;6925;47.816;13.072;2024-01-15T15:27:40;2.80;73.30
13707;DHT22;6925;47.816;13.072;2024-01-15T15:30:08;2.80;73.60
13707;DHT22;6925;47.816;13.072;2024-01-15T15:32:35;2.80;73.60
13707;DHT22;6925;47.816;13.072;2024-01-15T15:35:02;2.90;73.30
13707;DHT22;6925;47.816;13.072;2024-01-15T15:37:29;2.90;72.80
13707;DHT22;6925;47.816;13.072;2024-01-15T15:39:58;2.90;72.30
13707;DHT22;6925;47.816;13.072;2024-01-15T15:42:25;2.90;72.10
13707;DHT22;6925;47.816;13.072;2024-01-15T15:44:52;2.90;72.70
13707;DHT22;6925;47.816;13.072;2024-01-15T15:47:21;2.90;72.30
13707;DHT22;6925;47.816;13.072;2024-01-15T15:49:49;2.90;71.70
13707;DHT22;6925;47.816;13.072;2024-01-15T15:52:16;2.80;71.10
13707;DHT22;6925;47.816;13.072;2024-01-15T15:54:43;2.90;71.20
13707;DHT22;6925;47.816;13.072;2024-01-15T15:57:11;2.90;71.00
13707;DHT22;6925;47.816;13.072;2024-01-15T15:59:38;2.80;70.40
13707;DHT22;6925;47.816;13.072;2024-01-15T16:02:06;2.80;70.30
13707;DHT22;6925;47.816;13.072;2024-01-15T16:04:33;2.80;69.90
13707;DHT22;6925;47.816;13.072;2024-01-15T16:07:00;2.80;69.90
13707;DHT22;6925;47.816;13.072;2024-01-15T16:09:32;2.80;70.20
13707;DHT22;6925;47.816;13.072;2024-01-15T16:11:59;2.70;70.50
13707;DHT22;6925;47.816;13.072;2024-01-15T16:14:28;2.70;70.40
13707;DHT22;6925;47.816;13.072;2024-01-15T16:16:55;2.80;70.40
13707;DHT22;6925;47.816;13.072;2024-01-15T16:19:23;2.80;70.70
13707;DHT22;6925;47.816;13.072;2024-01-15T16:21:50;2.80;70.50
13707;DHT22;6925;47.816;13.072;2024-01-15T16:24:18;2.80;71.10